Varna, Bulgaria
Current Conditions -  °F | °C
As of 8:00 AM on Thursday 23 Oct 2014 (Local Time) from LBWN Reporting Station
Clear Clear  
Wind Chill: 63°   Ceiling: Unl
Heat Index: 63°   Visibility: 6mi
Dew Point: 61°   Wind: 9mph
Humidity: 94%   Direction: 130°SE
Pressure: 29.59"   Gusts: NA
Location:  43.21°N, 27.9°E
Report Text: LBWN 230500Z 13004MPS CAVOK 17/16 Q1002 NOSIG
Loading
Personal Weather Stations






























Interactive Weather Map
Tropical Storm Tracking
New forecast layout! Learn more

10-Day Weather Forecast

Advertisements
Track Severe Weather on mobile